createdAt,value
2022-10-06T10:27:05.250Z,74
2022-10-06T10:32:17.763Z,74.1
2022-10-06T10:38:19.819Z,74.6
2022-10-06T10:44:01.931Z,74.6
2022-10-06T10:49:40.488Z,74.9
2022-10-06T10:55:05.235Z,74.9
2022-10-06T11:00:43.221Z,74.5
2022-10-06T11:06:21.936Z,74.6
2022-10-06T11:11:47.501Z,74.7
2022-10-06T11:17:29.882Z,74.6
2022-10-06T11:22:52.697Z,74.8
2022-10-06T11:28:18.586Z,73.4
2022-10-06T11:33:42.285Z,74.1
2022-10-06T11:39:04.805Z,74.8
2022-10-06T11:44:32.722Z,73.4
2022-10-06T11:50:05.190Z,73.7
2022-10-06T11:55:48.045Z,74.6
2022-10-06T12:01:31.909Z,73.7
2022-10-06T12:07:33.785Z,73.8
2022-10-06T12:14:12.291Z,73.6
2022-10-06T12:22:06.919Z,73.7
2022-10-06T12:32:57.030Z,72.4
2022-10-06T12:38:27.450Z,71.1
2022-10-06T12:43:49.798Z,70.8
2022-10-06T12:49:12.764Z,71.1
2022-10-06T12:54:39.441Z,69.8
2022-10-06T13:00:01.905Z,70.1
2022-10-06T13:05:40.771Z,69.8
2022-10-06T13:11:22.405Z,69.3
2022-10-06T13:17:02.404Z,68.1
2022-10-06T13:22:26.409Z,67
2022-10-06T13:27:48.481Z,67
2022-10-06T13:33:31.648Z,66.4
2022-10-06T13:39:11.796Z,66.1
2022-10-06T13:45:01.146Z,65.1
2022-10-06T13:50:39.799Z,64.3
2022-10-06T13:56:18.057Z,63.5
2022-10-06T14:01:59.360Z,62.9
2022-10-06T14:07:42.620Z,61.9
2022-10-06T14:13:24.899Z,61
2022-10-06T14:24:26.701Z,59.6
2022-10-06T14:30:04.739Z,58.9
2022-10-06T14:35:45.536Z,58.2
2022-10-06T19:56:31.952Z,42.1
2022-10-06T20:01:54.416Z,42.1
2022-10-06T20:07:31.433Z,42
2022-10-06T20:12:58.285Z,41.9
2022-10-06T20:23:43.059Z,41.9
2022-10-06T20:29:22.237Z,41.8
2022-10-06T20:34:44.225Z,41.8
2022-10-06T20:50:51.040Z,41.6
2022-10-06T20:56:31.161Z,41.6
2022-10-06T21:02:09.164Z,41.5
2022-10-06T21:07:46.989Z,41.4
2022-10-06T21:13:28.626Z,41.4
2022-10-06T21:19:07.205Z,41.4
2022-10-06T21:24:44.317Z,41.4
2022-10-06T21:30:22.470Z,41.3
2022-10-06T21:36:00.640Z,41.3
2022-10-06T21:41:41.354Z,41.2
2022-10-06T21:47:49.901Z,41.2
2022-10-06T21:53:12.426Z,41.1
2022-10-06T21:58:50.643Z,41.1
2022-10-06T22:04:28.423Z,41.1
2022-10-06T22:10:06.517Z,41.1
2022-10-06T22:15:43.945Z,41
2022-10-06T22:21:21.478Z,41
2022-10-06T22:26:46.453Z,40.9
2022-10-06T22:32:29.332Z,40.9
2022-10-06T22:38:05.440Z,40.8
2022-10-06T22:43:48.359Z,40.8
2022-10-06T22:49:10.787Z,40.8
2022-10-06T22:54:32.216Z,40.7
2022-10-06T22:59:54.733Z,40.7
2022-10-06T23:10:13.639Z,40.6
2022-10-06T23:20:26.331Z,40.6
2022-10-06T23:25:47.959Z,40.5
2022-10-06T23:30:39.553Z,40.5
2022-10-06T23:35:45.258Z,40.4
2022-10-06T23:41:22.124Z,40.4
2022-10-06T23:46:43.733Z,40.4
2022-10-06T23:52:05.799Z,40.4
2022-10-06T23:57:11.410Z,40.3
